Peachytown, Canada

11:03 AM NST on December 10, 2018 (GMT -0330)
| | Change Station

Elev -9999 ft 0.00 °N, 0.00 °E | Updated

Light Snow
Light Snow
°F
Feels Like °F
N
Wind Variable Wind from North
Gusts mph

Today
High -- | Low -- °F
--% Chance of Precip.
Yesterday
High -- | Low -- °F
Precip. -- in
Pressure 29.85 in
Visibility 15.0 miles
Clouds Few 1300 ft
Mostly Cloudy 2300 ft
Mostly Cloudy 3300 ft
Dew Point Not available.
Humidity Not available.
Rainfall --
Snow Depth Not available.
7:38 AM 4:10 PM
Waxing Crescent, 10% visible
SPECI CWWU 101417Z 23006KT 210V270 15SM -SN FEW013 BKN023 BKN033 M03/M05 A2984 RMK CF1SC4SC2 VIS SW-NW 8 SLP106
Pressure 29.85 in
Visibility 15.0 miles
Clouds Few 1300 ft
Mostly Cloudy 2300 ft
Mostly Cloudy 3300 ft
Dew Point Not available.
Humidity Not available.
Rainfall --
Snow Depth Not available.
7:38 AM 4:10 PM
Waxing Crescent, 10% visible
SPECI CWWU 101417Z 23006KT 210V270 15SM -SN FEW013 BKN023 BKN033 M03/M05 A2984 RMK CF1SC4SC2 VIS SW-NW 8 SLP106

Get Severe Weather Alerts

Thanks for signing up!

Be on the lookout for a verification email in your inbox.

You'll start receiving the daily forecast at 6 AM.

×

10-Day Weather Forecast

Almanac

Astronomy

Dec. 10, 2018 Rise Set
Actual Time
Civil Twilight
Nautical Twilight
Astronomical Twilight
Moon
Length of Visible Light
Length of Day
Tomorrow will be .
, % of the Moon is Illuminated

Today's Extremes

Country Highs Country Lows

Community

WunderPhotos

Category 6

Welcome to Category 6. This is the collective home for Weather Underground's featured writeups by Dr. Jeff Masters (right), Bob Henson (left), Chris Burt, and other regular contributors.

Nearby

Air Quality

  Air Quality AQ Index Pollutant
Not available.

Snow Depth

Station Depth Elevation

Earthquake Activity

City Distance Mag. Time & Date
Minimum magnitude displayed is 2.5.

Coastal Water Temperatures

Place Temperature

Stations

Nearby Weather Stations

Station Location Temp. Windchill Dew Point Humidity Wind Precip. Elev Updated Type
                   

Watches & Warnings

There are currently no watches in effect.